createdAt,value
2019-02-17T00:00:21.449Z,101132.45
2019-02-17T00:02:52.083Z,101121.66
2019-02-17T00:05:22.565Z,101123.83
2019-02-17T00:07:53.044Z,101122.89
2019-02-17T00:10:23.570Z,101126.52
2019-02-17T00:12:54.114Z,101125.14
2019-02-17T00:15:24.578Z,101116.31
2019-02-17T00:17:55.103Z,101106.25
2019-02-17T00:20:25.572Z,101118.66
2019-02-17T00:22:56.087Z,101116.95
2019-02-17T00:25:26.549Z,101111.98
2019-02-17T00:27:57.092Z,101110.81
2019-02-17T00:30:27.558Z,101100.84
2019-02-17T00:32:58.021Z,101099.98
2019-02-17T00:35:28.521Z,101100.05
2019-02-17T00:37:59.050Z,101100.05
2019-02-17T00:40:29.521Z,101097.31
2019-02-17T00:43:00.030Z,101095.44
2019-02-17T00:45:30.548Z,101098.73
2019-02-17T00:48:01.018Z,101098.73
2019-02-17T00:50:31.582Z,101100.09
2019-02-17T00:53:02.102Z,101100.09
2019-02-17T00:55:32.570Z,101090.87
2019-02-17T00:58:03.036Z,101086.34
2019-02-17T01:00:33.526Z,101089.20
2019-02-17T01:03:04.098Z,101084.67
2019-02-17T01:05:34.616Z,101084.67
2019-02-17T01:08:05.213Z,101060.76
2019-02-17T01:10:35.729Z,101080.28
2019-02-17T01:13:06.265Z,101078.75
2019-02-17T01:15:36.802Z,101077.41
2019-02-17T01:18:07.278Z,101082.00
2019-02-17T01:20:37.804Z,101082.00
2019-02-17T01:23:08.374Z,101077.69
2019-02-17T01:25:38.828Z,101077.69
2019-02-17T01:28:09.342Z,101079.91
2019-02-17T01:30:39.842Z,101073.08
2019-02-17T01:33:10.361Z,101065.45
2019-02-17T01:35:40.901Z,101065.45
2019-02-17T01:38:11.363Z,101059.09
2019-02-17T01:40:41.827Z,101059.09
2019-02-17T01:43:12.356Z,101058.41
2019-02-17T01:45:42.834Z,101058.41
2019-02-17T01:48:13.344Z,101062.28
2019-02-17T01:50:43.810Z,101059.46
2019-02-17T01:53:14.438Z,101059.46
2019-02-17T01:55:46.967Z,101061.55
2019-02-17T01:58:17.121Z,101054.48
2019-02-17T02:00:47.711Z,101054.48
2019-02-17T02:03:18.249Z,101046.09
2019-02-17T02:05:48.722Z,101050.66
2019-02-17T02:08:19.229Z,101050.66
2019-02-17T02:10:49.693Z,101042.92
2019-02-17T02:13:20.205Z,101042.92
2019-02-17T02:15:50.717Z,101039.91
2019-02-17T02:18:21.235Z,101039.41
2019-02-17T02:20:51.697Z,101031.89
2019-02-17T02:23:22.219Z,101032.84
2019-02-17T02:25:52.854Z,101039.55
2019-02-17T02:28:23.327Z,101033.03
2019-02-17T02:30:53.793Z,101033.17
2019-02-17T02:33:24.304Z,101038.33
2019-02-17T02:35:54.826Z,101038.33
2019-02-17T02:38:25.341Z,101033.81
2019-02-17T02:40:55.866Z,101033.81
2019-02-17T02:43:26.339Z,101041.83
2019-02-17T02:45:56.810Z,101040.49
2019-02-17T02:48:27.273Z,101038.13
2019-02-17T02:50:57.756Z,101030.89
2019-02-17T02:53:28.221Z,101037.44
2019-02-17T02:55:58.721Z,101032.23
2019-02-17T02:58:29.224Z,101027.52
2019-02-17T03:00:59.723Z,101018.25
2019-02-17T03:03:30.190Z,101026.69
2019-02-17T03:06:06.972Z,101026.69
2019-02-17T03:08:37.485Z,101019.78
2019-02-17T03:11:07.954Z,101019.25
2019-02-17T03:13:38.470Z,101019.25
2019-02-17T03:16:08.962Z,101019.20
2019-02-17T03:18:39.437Z,101014.18
2019-02-17T03:21:09.969Z,101013.21
2019-02-17T03:23:40.477Z,101011.38
2019-02-17T03:26:10.971Z,101009.20
2019-02-17T03:28:41.469Z,101005.83
2019-02-17T03:31:12.048Z,100997.31
2019-02-17T03:33:42.563Z,100990.71
2019-02-17T03:36:13.316Z,100990.71
2019-02-17T03:38:43.781Z,100996.75
2019-02-17T03:41:14.284Z,100996.75
2019-02-17T03:43:44.783Z,101000.56
2019-02-17T03:46:15.250Z,100996.23
2019-02-17T03:48:45.858Z,100996.81
2019-02-17T03:51:16.325Z,100985.00
2019-02-17T03:53:46.828Z,100985.00
2019-02-17T03:56:17.305Z,100999.25
2019-02-17T03:58:47.868Z,101000.81
2019-02-17T04:01:18.347Z,101000.81
2019-02-17T04:03:48.858Z,100998.78
2019-02-17T04:06:19.542Z,100998.78
2019-02-17T04:08:50.057Z,100992.87
2019-02-17T04:11:20.563Z,100998.86
2019-02-17T04:13:51.039Z,101001.86
2019-02-17T04:16:21.502Z,100999.36
2019-02-17T04:18:52.012Z,100999.64
2019-02-17T04:21:22.485Z,100999.64
2019-02-17T04:23:53.009Z,100998.66
2019-02-17T04:26:23.483Z,101000.84
2019-02-17T04:28:53.997Z,101000.84
2019-02-17T04:31:24.461Z,101005.20
2019-02-17T04:33:54.980Z,101004.84
2019-02-17T04:36:25.449Z,101004.84
2019-02-17T04:38:55.958Z,100992.77
2019-02-17T04:41:26.428Z,100999.87
2019-02-17T04:43:56.941Z,101007.52
2019-02-17T04:46:27.398Z,101020.17
2019-02-17T04:48:57.896Z,101019.48
2019-02-17T04:51:28.401Z,101019.48
2019-02-17T04:53:59.057Z,101018.51
2019-02-17T04:56:29.638Z,101030.66
2019-02-17T04:59:00.104Z,101026.16
2019-02-17T05:01:30.573Z,101026.16
2019-02-17T05:04:01.188Z,101015.47
2019-02-17T05:06:31.652Z,101026.86
2019-02-17T05:09:02.153Z,101028.49
2019-02-17T05:11:32.622Z,101027.99
2019-02-17T05:14:03.094Z,101023.03
2019-02-17T05:16:33.595Z,101014.82
2019-02-17T05:19:04.059Z,101014.82
2019-02-17T05:21:34.568Z,101012.98
2019-02-17T05:24:05.040Z,101014.89
2019-02-17T05:26:35.515Z,101012.41
2019-02-17T05:29:06.023Z,101012.41
2019-02-17T05:31:36.542Z,101010.08
2019-02-17T05:34:07.083Z,101013.61
2019-02-17T05:36:37.586Z,101019.35
2019-02-17T05:39:08.088Z,101019.08
2019-02-17T05:41:38.590Z,101019.35
2019-02-17T05:44:09.053Z,101018.38
2019-02-17T05:46:39.554Z,101017.05
2019-02-17T05:49:10.063Z,101019.35
2019-02-17T05:51:40.543Z,101019.35
2019-02-17T05:54:11.050Z,100885.45
2019-02-17T05:56:41.514Z,101031.56
2019-02-17T05:59:12.025Z,101028.57
2019-02-17T06:01:42.550Z,101028.35
2019-02-17T06:04:13.015Z,101028.35
2019-02-17T06:06:43.498Z,101035.84
2019-02-17T06:09:13.978Z,101035.84
2019-02-17T06:11:44.582Z,101035.66
2019-02-17T06:14:15.043Z,101036.83
2019-02-17T06:16:45.657Z,101036.83
2019-02-17T06:19:17.790Z,101031.00
2019-02-17T06:21:48.414Z,101031.68
2019-02-17T06:24:18.921Z,100978.34
2019-02-17T06:26:49.558Z,101043.37
2019-02-17T06:29:20.077Z,101042.28
2019-02-17T06:31:50.544Z,101045.98
2019-02-17T06:34:21.065Z,101055.50
2019-02-17T06:36:51.575Z,101051.06
2019-02-17T06:39:22.087Z,101057.84
2019-02-17T06:41:52.554Z,101054.86
2019-02-17T06:44:23.062Z,101046.20
2019-02-17T06:46:57.155Z,101035.98
2019-02-17T06:49:27.619Z,101042.56
2019-02-17T06:51:58.094Z,101030.00
2019-02-17T06:54:28.612Z,101040.78
2019-02-17T06:57:02.449Z,101044.00
2019-02-17T06:59:32.955Z,101042.31
2019-02-17T07:02:03.590Z,101041.80
2019-02-17T07:04:55.999Z,101038.28
2019-02-17T07:07:26.462Z,101035.91
2019-02-17T07:09:57.182Z,101036.27
2019-02-17T07:12:27.672Z,101037.42
2019-02-17T07:14:58.138Z,101044.80
2019-02-17T07:17:28.636Z,101041.30
2019-02-17T07:19:59.087Z,101039.28
2019-02-17T07:22:29.555Z,101038.94
2019-02-17T07:25:00.019Z,101046.29
2019-02-17T07:27:30.554Z,101041.17
2019-02-17T07:30:01.010Z,101039.27
2019-02-17T07:32:31.474Z,101040.48
2019-02-17T07:35:01.989Z,101045.01
2019-02-17T07:37:33.839Z,100922.67
2019-02-17T07:40:04.469Z,101049.78
2019-02-17T07:42:34.938Z,101042.64
2019-02-17T07:45:05.779Z,101042.72
2019-02-17T07:47:36.233Z,101041.84
2019-02-17T07:50:07.454Z,101047.23
2019-02-17T07:52:37.922Z,101050.16
2019-02-17T07:55:09.013Z,101038.58
2019-02-17T07:57:39.469Z,101049.27
2019-02-17T08:00:10.275Z,101050.97
2019-02-17T08:02:40.782Z,101037.80
2019-02-17T08:05:11.392Z,101033.95
2019-02-17T08:07:41.862Z,101034.93
2019-02-17T08:10:12.474Z,101035.02
2019-02-17T08:12:42.955Z,101035.72
2019-02-17T08:15:13.668Z,101037.63
2019-02-17T08:17:44.121Z,101026.80
2019-02-17T08:20:14.634Z,101030.19
2019-02-17T08:22:45.155Z,101020.44
2019-02-17T08:25:21.699Z,101019.56
2019-02-17T08:27:47.999Z,101015.56
2019-02-17T08:30:18.625Z,101009.86
2019-02-17T08:32:49.228Z,101008.48
2019-02-17T08:35:19.637Z,101009.60
2019-02-17T08:37:50.247Z,100998.20
2019-02-17T08:40:20.733Z,101006.05
2019-02-17T08:42:51.197Z,101000.07
2019-02-17T08:45:21.697Z,100994.59
2019-02-17T08:47:52.159Z,100997.50
2019-02-17T08:50:22.631Z,100994.59
2019-02-17T08:52:53.152Z,100992.73
2019-02-17T08:55:23.623Z,100997.58
2019-02-17T08:57:54.146Z,100987.92
2019-02-17T09:00:24.614Z,100986.57
2019-02-17T09:02:55.111Z,100986.16
2019-02-17T09:05:25.592Z,100984.72
2019-02-17T09:07:56.067Z,100983.19
2019-02-17T09:10:26.542Z,100974.56
2019-02-17T09:12:57.059Z,100978.50
2019-02-17T09:15:27.581Z,100983.45
2019-02-17T09:17:58.059Z,100982.36
2019-02-17T09:20:28.579Z,100984.02
2019-02-17T09:22:59.082Z,100978.34
2019-02-17T09:25:29.593Z,100971.18
2019-02-17T09:28:00.094Z,100978.56
2019-02-17T09:30:30.603Z,100981.73
2019-02-17T09:33:01.113Z,100976.75
2019-02-17T09:35:31.633Z,100973.71
2019-02-17T09:38:02.218Z,100983.59
2019-02-17T09:40:32.731Z,100981.67
2019-02-17T09:43:03.338Z,100971.97
2019-02-17T09:45:33.823Z,100973.74
2019-02-17T09:48:04.386Z,100973.98
2019-02-17T09:50:34.896Z,100966.60
2019-02-17T09:53:05.358Z,100963.36
2019-02-17T09:55:35.875Z,100965.91
2019-02-17T09:58:06.447Z,100955.09
2019-02-17T10:00:36.953Z,100953.95
2019-02-17T10:03:07.461Z,100952.51
2019-02-17T10:05:37.941Z,100941.04
2019-02-17T10:08:08.424Z,100940.45
2019-02-17T10:10:38.910Z,100941.19
2019-02-17T10:13:09.419Z,100932.52
2019-02-17T10:15:39.945Z,100930.02
2019-02-17T10:18:10.458Z,100934.42
2019-02-17T10:20:40.931Z,100922.13
2019-02-17T10:23:11.415Z,100917.96
2019-02-17T10:25:41.942Z,100922.78
2019-02-17T10:28:12.407Z,100914.31
2019-02-17T10:30:42.991Z,100909.84
2019-02-17T10:33:13.459Z,100907.94
2019-02-17T10:35:43.978Z,100909.09
2019-02-17T10:38:14.881Z,100902.31
2019-02-17T10:40:45.388Z,100893.85
2019-02-17T10:43:15.908Z,100890.20
2019-02-17T10:45:46.395Z,100881.09
2019-02-17T10:48:16.926Z,100877.22
2019-02-17T10:50:47.443Z,100871.19
2019-02-17T10:53:17.961Z,100866.66
2019-02-17T10:55:48.426Z,100862.91
2019-02-17T10:58:18.896Z,100856.42
2019-02-17T11:00:49.426Z,100841.58
2019-02-17T11:03:19.941Z,100848.93
2019-02-17T11:05:50.513Z,100840.10
2019-02-17T11:08:21.012Z,100833.69
2019-02-17T11:10:51.483Z,100834.48
2019-02-17T11:13:21.998Z,100830.89
2019-02-17T11:15:52.455Z,100824.80
2019-02-17T11:18:22.971Z,100811.83
2019-02-17T11:20:53.513Z,100810.50
2019-02-17T11:23:23.971Z,100806.71
2019-02-17T11:25:54.442Z,100808.55
2019-02-17T11:28:24.954Z,100792.58
2019-02-17T11:30:55.548Z,100782.55
2019-02-17T11:33:26.026Z,100783.48
2019-02-17T11:35:56.646Z,100777.03
2019-02-17T11:38:27.157Z,100775.88
2019-02-17T11:40:57.623Z,100774.09
2019-02-17T11:43:28.090Z,100772.56
2019-02-17T11:45:58.555Z,100770.16
2019-02-17T11:48:29.182Z,100766.70
2019-02-17T11:50:59.763Z,100760.98
2019-02-17T11:53:30.300Z,100756.62
2019-02-17T11:56:00.816Z,100748.53
2019-02-17T11:58:31.537Z,100752.91
2019-02-17T12:01:02.049Z,100748.92
2019-02-17T12:03:32.650Z,100743.80
2019-02-17T12:06:03.106Z,100738.06
2019-02-17T12:08:33.601Z,100739.81
2019-02-17T12:11:04.100Z,100736.12
2019-02-17T12:13:34.609Z,100737.87
2019-02-17T12:16:05.117Z,100733.78
2019-02-17T12:18:35.617Z,100727.05
2019-02-17T12:21:17.843Z,100719.02
2019-02-17T12:24:07.204Z,100716.08
2019-02-17T12:26:56.504Z,100721.66
2019-02-17T12:29:34.097Z,100717.42
2019-02-17T12:32:04.649Z,100712.36
2019-02-17T12:34:35.163Z,100707.23
2019-02-17T12:37:05.672Z,100696.34
2019-02-17T12:39:36.126Z,100704.35
2019-02-17T12:42:06.625Z,100690.48
2019-02-17T12:44:37.139Z,100695.42
2019-02-17T12:47:07.605Z,100693.30
2019-02-17T12:49:38.109Z,100689.28
2019-02-17T12:52:08.560Z,100697.04
2019-02-17T12:54:39.222Z,100689.47
2019-02-17T12:57:09.689Z,100687.13
2019-02-17T12:59:41.214Z,100686.42
2019-02-17T13:02:11.773Z,100686.30
2019-02-17T13:04:42.271Z,100684.62
2019-02-17T13:07:12.732Z,100676.88
2019-02-17T13:09:43.253Z,100672.27
2019-02-17T13:12:13.717Z,100671.55
2019-02-17T13:14:44.182Z,100675.03
2019-02-17T13:17:14.771Z,100671.82
2019-02-17T13:19:45.231Z,100666.42
2019-02-17T13:22:15.685Z,100665.44
2019-02-17T13:24:46.145Z,100662.23
2019-02-17T13:27:16.593Z,100663.14
2019-02-17T13:29:47.097Z,100659.11
2019-02-17T13:32:17.552Z,100658.12
2019-02-17T13:34:48.122Z,100659.31
2019-02-17T13:37:18.636Z,100649.45
2019-02-17T13:39:49.113Z,100646.67
2019-02-17T13:42:19.625Z,100640.28
2019-02-17T13:44:50.127Z,100639.57
2019-02-17T13:47:20.633Z,100643.66
2019-02-17T13:49:51.085Z,100639.29
2019-02-17T13:52:21.574Z,100636.08
2019-02-17T13:54:52.091Z,100633.66
2019-02-17T13:57:22.612Z,100623.86
2019-02-17T13:59:53.127Z,100626.39
2019-02-17T14:02:23.599Z,100617.67
2019-02-17T14:04:54.117Z,100623.21
2019-02-17T14:07:24.592Z,100620.13
2019-02-17T14:09:55.049Z,100618.54
2019-02-17T14:12:25.573Z,100608.54
2019-02-17T14:14:56.037Z,100609.91
2019-02-17T14:17:26.487Z,100607.64
2019-02-17T14:19:56.994Z,100609.23
2019-02-17T14:22:27.451Z,100606.27
2019-02-17T14:24:57.956Z,100605.99
2019-02-17T14:27:28.432Z,100607.58
2019-02-17T14:29:58.922Z,100601.00
2019-02-17T14:32:29.375Z,100601.17
2019-02-17T14:34:59.835Z,100602.53
2019-02-17T14:37:30.348Z,100602.03
2019-02-17T14:40:00.872Z,100601.34
2019-02-17T14:42:31.519Z,100592.89
2019-02-17T14:45:01.991Z,100596.61
2019-02-17T14:47:32.458Z,100594.71
2019-02-17T14:50:02.959Z,100595.97
2019-02-17T14:52:33.527Z,100584.47
2019-02-17T14:55:04.163Z,100591.28
2019-02-17T14:57:34.637Z,100589.55
2019-02-17T15:00:05.796Z,100591.20
2019-02-17T15:02:36.312Z,100579.77
2019-02-17T15:05:06.954Z,100593.65
2019-02-17T15:07:37.573Z,100583.20
2019-02-17T15:10:08.930Z,100589.95
2019-02-17T15:12:39.456Z,100586.58
2019-02-17T15:15:10.268Z,100586.75
2019-02-17T15:17:40.739Z,100587.97
2019-02-17T15:20:12.526Z,100588.98
2019-02-17T15:22:43.038Z,100586.94
2019-02-17T15:25:13.622Z,100584.70
2019-02-17T15:27:44.143Z,100581.86
2019-02-17T15:30:15.083Z,100583.29
2019-02-17T15:32:45.604Z,100579.09
2019-02-17T15:35:16.072Z,100584.91
2019-02-17T15:37:46.653Z,100585.17
2019-02-17T15:40:17.258Z,100588.75
2019-02-17T15:42:47.791Z,100582.23
2019-02-17T15:45:18.404Z,100581.79
2019-02-17T15:47:48.913Z,100581.00
2019-02-17T15:50:19.410Z,100591.64
2019-02-17T15:52:49.903Z,100593.59
2019-02-17T15:55:20.424Z,100586.52
2019-02-17T15:57:50.940Z,100590.91
2019-02-17T16:00:21.533Z,100595.70
2019-02-17T16:02:52.045Z,100601.14
2019-02-17T16:05:22.513Z,100595.92
2019-02-17T16:07:53.097Z,100604.03
2019-02-17T16:10:23.614Z,100600.70
2019-02-17T16:12:54.127Z,100596.00
2019-02-17T16:15:24.769Z,100603.81
2019-02-17T16:17:55.293Z,100602.86
2019-02-17T16:20:25.758Z,100600.06
2019-02-17T16:22:56.231Z,100604.62
2019-02-17T16:25:26.738Z,100608.02
2019-02-17T16:27:57.211Z,100608.73
2019-02-17T16:30:27.717Z,100613.25
2019-02-17T16:32:58.171Z,100610.49
2019-02-17T16:35:28.686Z,100602.92
2019-02-17T16:37:59.212Z,100603.70
2019-02-17T16:40:29.693Z,100604.55
2019-02-17T16:43:00.220Z,100610.00
2019-02-17T16:45:30.848Z,100607.77
2019-02-17T16:48:01.321Z,100610.17
2019-02-17T16:50:31.967Z,100613.11
2019-02-17T16:53:02.443Z,100615.50
2019-02-17T16:55:33.070Z,100614.28
2019-02-17T16:58:03.585Z,100609.81
2019-02-17T17:00:34.129Z,100614.81
2019-02-17T17:03:05.103Z,100616.58
2019-02-17T17:05:35.579Z,100617.51
2019-02-17T17:08:06.196Z,100625.73
2019-02-17T17:10:36.661Z,100626.32
2019-02-17T17:13:07.183Z,100625.80
2019-02-17T17:15:37.637Z,100629.65
2019-02-17T17:18:08.209Z,100629.44
2019-02-17T17:20:38.833Z,100631.72
2019-02-17T17:23:09.339Z,100632.34
2019-02-17T17:25:40.064Z,100633.16
2019-02-17T17:28:10.569Z,100634.98
2019-02-17T17:30:41.133Z,100636.66
2019-02-17T17:33:11.653Z,100628.19
2019-02-17T17:35:42.124Z,100629.83
2019-02-17T17:38:12.586Z,100627.73
2019-02-17T17:40:43.108Z,100631.58
2019-02-17T17:43:13.578Z,100623.22
2019-02-17T17:45:44.043Z,100624.36
2019-02-17T17:48:14.542Z,100623.09
2019-02-17T17:50:45.078Z,100626.34
2019-02-17T17:53:15.543Z,100620.42
2019-02-17T17:55:46.057Z,100626.05
2019-02-17T17:58:16.527Z,100624.97
2019-02-17T18:00:47.081Z,100630.67
2019-02-17T18:03:17.542Z,100634.64
2019-02-17T18:05:48.058Z,100638.70
2019-02-17T18:08:18.641Z,100635.02
2019-02-17T18:10:49.106Z,100632.59
2019-02-17T18:13:21.881Z,100635.26
2019-02-17T18:15:51.822Z,100636.69
2019-02-17T18:18:22.291Z,100641.03
2019-02-17T18:20:52.766Z,100648.35
2019-02-17T18:23:23.234Z,100646.25
2019-02-17T18:25:53.729Z,100643.50
2019-02-17T18:28:24.242Z,100644.66
2019-02-17T18:30:54.758Z,100653.29
2019-02-17T18:33:25.225Z,100651.94
2019-02-17T18:35:55.755Z,100653.29
2019-02-17T18:38:26.213Z,100646.54
2019-02-17T18:40:56.754Z,100642.16
2019-02-17T18:43:27.221Z,100642.87
2019-02-17T18:45:57.690Z,100649.50
2019-02-17T18:48:28.202Z,100648.22
2019-02-17T18:50:59.443Z,100654.36
2019-02-17T18:53:30.069Z,100649.22
2019-02-17T18:56:00.527Z,100647.19
2019-02-17T18:58:31.080Z,100656.17
2019-02-17T19:01:01.611Z,100647.52
2019-02-17T19:03:32.135Z,100653.41
2019-02-17T19:06:02.648Z,100647.99
2019-02-17T19:08:33.159Z,100651.75
2019-02-17T19:11:03.670Z,100654.94
2019-02-17T19:13:34.129Z,100657.50
2019-02-17T19:16:04.742Z,100653.04
2019-02-17T19:18:35.274Z,100651.88
2019-02-17T19:21:05.863Z,100652.44
2019-02-17T19:23:36.329Z,100652.36
2019-02-17T19:26:06.804Z,100651.13
2019-02-17T19:28:37.323Z,100652.66
2019-02-17T19:31:07.786Z,100656.97
2019-02-17T19:33:38.300Z,100663.20
2019-02-17T19:36:08.772Z,100658.39
2019-02-17T19:38:39.282Z,100659.34
2019-02-17T19:41:09.754Z,100662.11
2019-02-17T19:43:40.264Z,100661.32
2019-02-17T19:46:10.781Z,100663.56
2019-02-17T19:48:41.294Z,100665.66
2019-02-17T19:51:11.753Z,100669.27
2019-02-17T19:53:42.267Z,100678.53
2019-02-17T19:56:12.838Z,100672.88
2019-02-17T19:58:43.321Z,100678.36
2019-02-17T20:01:13.785Z,100681.36
2019-02-17T20:03:54.122Z,100679.44
2019-02-17T20:06:25.886Z,100680.75
2019-02-17T20:08:56.493Z,100677.94
2019-02-17T20:11:27.046Z,100681.00
2019-02-17T20:13:57.509Z,100683.34
2019-02-17T20:16:28.056Z,100690.30
2019-02-17T20:18:58.582Z,100692.02
2019-02-17T20:21:29.094Z,100690.67
2019-02-17T20:23:59.613Z,100687.33
2019-02-17T20:26:30.186Z,100691.89
2019-02-17T20:29:00.663Z,100685.13
2019-02-17T20:31:31.269Z,100689.47
2019-02-17T20:34:01.792Z,100690.97
2019-02-17T20:36:32.261Z,100686.72
2019-02-17T20:39:02.867Z,100693.86
2019-02-17T20:41:33.453Z,100695.65
2019-02-17T20:44:03.919Z,100698.78
2019-02-17T20:46:34.428Z,100697.31
2019-02-17T20:49:04.915Z,100697.74
2019-02-17T20:51:35.420Z,100703.03
2019-02-17T20:54:05.981Z,100701.08
2019-02-17T20:56:36.554Z,100703.16
2019-02-17T20:59:07.080Z,100707.76
2019-02-17T21:01:37.695Z,100706.11
2019-02-17T21:04:08.215Z,100704.84
2019-02-17T21:06:38.835Z,100706.73
2019-02-17T21:09:09.332Z,100703.94
2019-02-17T21:11:39.792Z,100712.91
2019-02-17T21:14:10.327Z,100708.42
2019-02-17T21:16:40.838Z,100708.14
2019-02-17T21:19:11.306Z,100712.87
2019-02-17T21:21:41.778Z,100713.10
2019-02-17T21:24:12.301Z,100710.72
2019-02-17T21:26:42.761Z,100716.48
2019-02-17T21:29:13.274Z,100706.03
2019-02-17T21:31:43.834Z,100705.72
2019-02-17T21:34:14.370Z,100716.48
2019-02-17T21:36:44.817Z,100716.80
2019-02-17T21:39:15.265Z,100721.86
2019-02-17T21:41:45.786Z,100722.86
2019-02-17T21:44:16.772Z,100718.69
2019-02-17T21:46:47.188Z,100726.41
2019-02-17T21:49:17.709Z,100724.23
2019-02-17T21:51:48.168Z,100718.54
2019-02-17T21:54:18.621Z,100719.23
2019-02-17T21:56:49.148Z,100722.26
2019-02-17T21:59:19.657Z,100718.42
2019-02-17T22:01:50.122Z,100716.08
2019-02-17T22:04:20.646Z,100725.66
2019-02-17T22:06:51.173Z,100724.17
2019-02-17T22:09:21.641Z,100722.00
2019-02-17T22:11:52.145Z,100730.58
2019-02-17T22:14:22.598Z,100721.65
2019-02-17T22:16:53.097Z,100720.99
2019-02-17T22:19:23.564Z,100727.40
2019-02-17T22:21:54.076Z,100724.19
2019-02-17T22:24:24.540Z,100709.26
2019-02-17T22:26:55.053Z,100714.32
2019-02-17T22:29:25.605Z,100716.00
2019-02-17T22:31:56.074Z,100714.00
2019-02-17T22:34:26.588Z,100716.70
2019-02-17T22:36:57.042Z,100718.44
2019-02-17T22:39:27.564Z,100716.62
2019-02-17T22:41:58.074Z,100718.48
2019-02-17T22:44:28.581Z,100708.77
2019-02-17T22:46:59.054Z,100702.93
2019-02-17T22:49:29.513Z,100706.77
2019-02-17T22:52:00.370Z,100706.10
2019-02-17T22:54:30.825Z,100698.56
2019-02-17T22:57:01.341Z,100698.26
2019-02-17T22:59:31.818Z,100704.63
2019-02-17T23:02:02.410Z,100697.25
2019-02-17T23:04:32.977Z,100701.28
2019-02-17T23:07:03.576Z,100688.72
2019-02-17T23:09:34.186Z,100695.91
2019-02-17T23:12:04.829Z,100699.45
2019-02-17T23:14:35.345Z,100697.09
2019-02-17T23:17:05.858Z,100697.09
2019-02-17T23:19:36.347Z,100698.14
2019-02-17T23:22:06.820Z,100698.14
2019-02-17T23:24:37.513Z,100685.73
2019-02-17T23:27:08.124Z,100685.73
2019-02-17T23:29:38.576Z,100697.95
2019-02-17T23:32:09.072Z,100695.26
2019-02-17T23:34:39.532Z,100694.93
2019-02-17T23:37:10.045Z,100694.93
2019-02-17T23:39:40.511Z,100695.75
2019-02-17T23:42:11.035Z,100704.66
2019-02-17T23:44:41.490Z,100704.66
2019-02-17T23:47:11.997Z,100697.80
2019-02-17T23:49:42.470Z,100692.14
2019-02-17T23:52:13.078Z,100699.19
2019-02-17T23:54:43.542Z,100690.16
2019-02-17T23:57:14.045Z,100690.16
2019-02-17T23:59:44.559Z,100696.20
